sensor_id;sensor_type;location;lat;lon;timestamp;pressure;altitude;pressure_sealevel;temperature;humidity
967;BME280;56108;48.730;9.304;2022-08-19T00:00:35;97229.34;;;20.20;73.24
967;BME280;56108;48.730;9.304;2022-08-19T00:02:44;97220.75;;;20.16;74.26
967;BME280;56108;48.730;9.304;2022-08-19T00:04:54;97226.50;;;20.13;75.83
967;BME280;56108;48.730;9.304;2022-08-19T00:07:02;97230.38;;;20.19;76.03
967;BME280;56108;48.730;9.304;2022-08-19T00:09:14;97232.28;;;20.10;75.47
967;BME280;56108;48.730;9.304;2022-08-19T00:11:26;97238.34;;;20.04;76.84
967;BME280;56108;48.730;9.304;2022-08-19T00:13:35;97242.78;;;19.89;77.22
967;BME280;56108;48.730;9.304;2022-08-19T00:15:43;97242.84;;;19.80;78.70
967;BME280;56108;48.730;9.304;2022-08-19T00:17:51;97244.88;;;19.78;79.86
967;BME280;56108;48.730;9.304;2022-08-19T00:19:59;97235.06;;;19.77;80.38
967;BME280;56108;48.730;9.304;2022-08-19T00:22:07;97231.91;;;19.66;81.35
967;BME280;56108;48.730;9.304;2022-08-19T00:24:17;97230.56;;;19.70;81.21
967;BME280;56108;48.730;9.304;2022-08-19T00:26:28;97235.91;;;19.78;80.04
967;BME280;56108;48.730;9.304;2022-08-19T00:28:36;97230.56;;;19.70;80.08
967;BME280;56108;48.730;9.304;2022-08-19T00:30:47;97223.28;;;19.54;81.26
967;BME280;56108;48.730;9.304;2022-08-19T00:32:56;97222.47;;;19.45;81.49
967;BME280;56108;48.730;9.304;2022-08-19T00:35:06;97216.41;;;19.43;81.67
967;BME280;56108;48.730;9.304;2022-08-19T00:37:15;97214.53;;;19.44;81.85
967;BME280;56108;48.730;9.304;2022-08-19T00:39:24;97206.28;;;19.45;82.45
967;BME280;56108;48.730;9.304;2022-08-19T00:41:34;97211.84;;;19.44;82.15
967;BME280;56108;48.730;9.304;2022-08-19T00:43:42;97212.34;;;19.39;82.42
967;BME280;56108;48.730;9.304;2022-08-19T00:45:51;97215.06;;;19.31;83.55
967;BME280;56108;48.730;9.304;2022-08-19T00:48:02;97214.38;;;19.29;84.12
967;BME280;56108;48.730;9.304;2022-08-19T00:50:20;97213.22;;;19.32;83.51
967;BME280;56108;48.730;9.304;2022-08-19T00:52:37;97214.72;;;19.26;83.82
967;BME280;56108;48.730;9.304;2022-08-19T00:54:51;97222.16;;;19.24;83.18
967;BME280;56108;48.730;9.304;2022-08-19T00:57:05;97218.63;;;19.32;83.80
967;BME280;56108;48.730;9.304;2022-08-19T00:59:15;97219.78;;;19.21;84.38
967;BME280;56108;48.730;9.304;2022-08-19T01:01:44;97216.09;;;19.14;85.07
967;BME280;56108;48.730;9.304;2022-08-19T01:03:56;97224.53;;;19.11;84.86
967;BME280;56108;48.730;9.304;2022-08-19T01:06:05;97221.50;;;19.06;83.92
967;BME280;56108;48.730;9.304;2022-08-19T01:08:14;97222.69;;;19.11;83.60
967;BME280;56108;48.730;9.304;2022-08-19T01:10:25;97219.63;;;19.14;83.35
967;BME280;56108;48.730;9.304;2022-08-19T01:12:43;97223.84;;;19.17;83.18
967;BME280;56108;48.730;9.304;2022-08-19T01:14:52;97217.44;;;19.18;82.95
967;BME280;56108;48.730;9.304;2022-08-19T01:17:03;97209.16;;;19.19;82.29
967;BME280;56108;48.730;9.304;2022-08-19T01:19:17;97217.78;;;19.23;81.10
967;BME280;56108;48.730;9.304;2022-08-19T01:21:31;97221.13;;;19.25;80.30
967;BME280;56108;48.730;9.304;2022-08-19T01:23:46;97218.78;;;19.22;81.32
967;BME280;56108;48.730;9.304;2022-08-19T01:25:55;97217.97;;;19.21;81.85
967;BME280;56108;48.730;9.304;2022-08-19T01:28:03;97215.41;;;19.20;82.21
967;BME280;56108;48.730;9.304;2022-08-19T01:30:19;97212.72;;;19.20;81.30
967;BME280;56108;48.730;9.304;2022-08-19T01:32:27;97207.50;;;19.26;81.69
967;BME280;56108;48.730;9.304;2022-08-19T01:34:38;97209.88;;;19.21;81.71
967;BME280;56108;48.730;9.304;2022-08-19T01:36:47;97211.19;;;19.25;81.95
967;BME280;56108;48.730;9.304;2022-08-19T01:38:58;97206.47;;;19.27;81.80
967;BME280;56108;48.730;9.304;2022-08-19T01:41:10;97213.88;;;19.34;80.63
967;BME280;56108;48.730;9.304;2022-08-19T01:43:18;97212.69;;;19.36;79.85
967;BME280;56108;48.730;9.304;2022-08-19T01:45:28;97209.31;;;19.26;79.99
967;BME280;56108;48.730;9.304;2022-08-19T01:47:37;97206.81;;;19.24;80.27
967;BME280;56108;48.730;9.304;2022-08-19T01:49:46;97206.81;;;19.33;80.15
967;BME280;56108;48.730;9.304;2022-08-19T01:51:53;97209.16;;;19.36;79.16
967;BME280;56108;48.730;9.304;2022-08-19T01:54:04;97205.44;;;19.37;79.02
967;BME280;56108;48.730;9.304;2022-08-19T01:56:12;97200.91;;;19.37;78.74
967;BME280;56108;48.730;9.304;2022-08-19T01:58:23;97204.25;;;19.39;78.57
967;BME280;56108;48.730;9.304;2022-08-19T02:00:34;97205.59;;;19.43;77.64
967;BME280;56108;48.730;9.304;2022-08-19T02:02:42;97206.97;;;19.39;78.74
967;BME280;56108;48.730;9.304;2022-08-19T02:04:51;97209.16;;;19.44;78.49
967;BME280;56108;48.730;9.304;2022-08-19T02:06:59;97204.78;;;19.43;79.11
967;BME280;56108;48.730;9.304;2022-08-19T02:09:10;97207.47;;;19.43;79.16
967;BME280;56108;48.730;9.304;2022-08-19T02:11:20;97212.69;;;19.36;79.38
967;BME280;56108;48.730;9.304;2022-08-19T02:13:29;97213.56;;;19.28;80.51
967;BME280;56108;48.730;9.304;2022-08-19T02:15:37;97201.56;;;19.31;80.47
967;BME280;56108;48.730;9.304;2022-08-19T02:17:46;97202.91;;;19.35;79.70
967;BME280;56108;48.730;9.304;2022-08-19T02:19:54;97208.66;;;19.32;79.53
967;BME280;56108;48.730;9.304;2022-08-19T02:22:02;97212.88;;;19.43;78.82
967;BME280;56108;48.730;9.304;2022-08-19T02:24:13;97215.56;;;19.43;78.51
967;BME280;56108;48.730;9.304;2022-08-19T02:26:21;97222.81;;;19.42;78.34
967;BME280;56108;48.730;9.304;2022-08-19T02:28:32;97227.72;;;19.39;78.42
967;BME280;56108;48.730;9.304;2022-08-19T02:30:41;97220.28;;;19.41;78.71
967;BME280;56108;48.730;9.304;2022-08-19T02:32:49;97222.13;;;19.40;78.72
967;BME280;56108;48.730;9.304;2022-08-19T02:34:57;97215.06;;;19.31;78.99
967;BME280;56108;48.730;9.304;2022-08-19T02:37:05;97212.88;;;19.43;79.16
967;BME280;56108;48.730;9.304;2022-08-19T02:39:41;97211.00;;;19.35;79.47
967;BME280;56108;48.730;9.304;2022-08-19T02:41:46;97205.28;;;19.38;79.83
967;BME280;56108;48.730;9.304;2022-08-19T02:43:56;97200.06;;;19.28;80.21
967;BME280;56108;48.730;9.304;2022-08-19T02:46:26;97199.06;;;19.21;80.21
967;BME280;56108;48.730;9.304;2022-08-19T02:48:35;97198.56;;;19.18;80.28
967;BME280;56108;48.730;9.304;2022-08-19T02:50:43;97196.03;;;19.16;80.28
967;BME280;56108;48.730;9.304;2022-08-19T02:52:57;97194.69;;;19.12;80.62
967;BME280;56108;48.730;9.304;2022-08-19T02:55:09;97191.97;;;19.20;80.34
967;BME280;56108;48.730;9.304;2022-08-19T02:57:17;97197.03;;;19.23;80.13
967;BME280;56108;48.730;9.304;2022-08-19T02:59:25;97198.06;;;19.22;80.25
967;BME280;56108;48.730;9.304;2022-08-19T03:01:39;97194.84;;;19.19;80.01
967;BME280;56108;48.730;9.304;2022-08-19T03:03:47;97192.97;;;19.19;80.15
967;BME280;56108;48.730;9.304;2022-08-19T03:06:07;97188.59;;;19.18;80.02
967;BME280;56108;48.730;9.304;2022-08-19T03:08:16;97193.31;;;19.24;79.68
967;BME280;56108;48.730;9.304;2022-08-19T03:10:27;97200.56;;;19.16;80.05
967;BME280;56108;48.730;9.304;2022-08-19T03:12:37;97203.94;;;19.18;80.01
967;BME280;56108;48.730;9.304;2022-08-19T03:14:45;97202.09;;;19.10;80.54
967;BME280;56108;48.730;9.304;2022-08-19T03:16:53;97212.22;;;19.08;80.85
967;BME280;56108;48.730;9.304;2022-08-19T03:19:02;97216.94;;;19.06;80.77
967;BME280;56108;48.730;9.304;2022-08-19T03:21:16;97212.72;;;19.03;80.88
967;BME280;56108;48.730;9.304;2022-08-19T03:23:25;97214.41;;;19.04;81.00
967;BME280;56108;48.730;9.304;2022-08-19T03:25:40;97222.50;;;19.04;81.17
967;BME280;56108;48.730;9.304;2022-08-19T03:27:48;97224.34;;;18.88;82.15
967;BME280;56108;48.730;9.304;2022-08-19T03:29:56;97231.06;;;18.84;82.57
967;BME280;56108;48.730;9.304;2022-08-19T03:32:05;97211.72;;;18.88;82.21
967;BME280;56108;48.730;9.304;2022-08-19T03:34:36;97215.06;;;18.74;83.02
967;BME280;56108;48.730;9.304;2022-08-19T03:36:45;97212.22;;;18.75;82.92
967;BME280;56108;48.730;9.304;2022-08-19T03:38:55;97209.53;;;18.75;83.14
967;BME280;56108;48.730;9.304;2022-08-19T03:41:10;97218.63;;;18.74;83.40
967;BME280;56108;48.730;9.304;2022-08-19T03:43:20;97211.69;;;18.72;83.44
967;BME280;56108;48.730;9.304;2022-08-19T03:45:28;97214.91;;;18.75;83.20
967;BME280;56108;48.730;9.304;2022-08-19T03:47:36;97216.28;;;18.80;82.82
967;BME280;56108;48.730;9.304;2022-08-19T03:49:44;97212.56;;;18.81;82.55
967;BME280;56108;48.730;9.304;2022-08-19T03:51:53;97215.25;;;18.81;82.38
967;BME280;56108;48.730;9.304;2022-08-19T03:54:05;97227.06;;;18.80;82.35
967;BME280;56108;48.730;9.304;2022-08-19T03:56:17;97223.66;;;18.77;82.29
967;BME280;56108;48.730;9.304;2022-08-19T03:58:29;97219.78;;;18.88;82.09
967;BME280;56108;48.730;9.304;2022-08-19T04:00:41;97215.41;;;18.79;82.56
967;BME280;56108;48.730;9.304;2022-08-19T04:02:49;97214.56;;;18.78;82.33
967;BME280;56108;48.730;9.304;2022-08-19T04:05:05;97218.13;;;18.87;82.21
967;BME280;56108;48.730;9.304;2022-08-19T04:07:13;97228.56;;;18.82;82.44
967;BME280;56108;48.730;9.304;2022-08-19T04:09:26;97225.34;;;18.78;82.32
967;BME280;56108;48.730;9.304;2022-08-19T04:11:39;97226.03;;;18.89;82.26
967;BME280;56108;48.730;9.304;2022-08-19T04:13:50;97223.50;;;18.87;81.83
967;BME280;56108;48.730;9.304;2022-08-19T04:15:58;97225.00;;;18.73;82.88
967;BME280;56108;48.730;9.304;2022-08-19T04:18:07;97220.31;;;18.75;82.28
967;BME280;56108;48.730;9.304;2022-08-19T04:20:17;97221.47;;;18.73;82.64
967;BME280;56108;48.730;9.304;2022-08-19T04:22:26;97206.97;;;18.74;82.67
967;BME280;56108;48.730;9.304;2022-08-19T04:24:37;97209.66;;;18.74;82.55
967;BME280;56108;48.730;9.304;2022-08-19T04:26:50;97207.66;;;18.76;82.72
967;BME280;56108;48.730;9.304;2022-08-19T04:29:04;97216.06;;;18.73;82.47
967;BME280;56108;48.730;9.304;2022-08-19T04:31:18;97206.16;;;18.82;82.20
967;BME280;56108;48.730;9.304;2022-08-19T04:33:27;97201.56;;;18.74;82.54
967;BME280;56108;48.730;9.304;2022-08-19T04:35:41;97200.25;;;18.78;82.88
967;BME280;56108;48.730;9.304;2022-08-19T04:37:50;97205.81;;;18.76;82.46
967;BME280;56108;48.730;9.304;2022-08-19T04:39:59;97206.97;;;18.74;82.60
967;BME280;56108;48.730;9.304;2022-08-19T04:42:26;97195.38;;;18.82;82.47
967;BME280;56108;48.730;9.304;2022-08-19T04:44:48;97197.91;;;18.75;82.30
967;BME280;56108;48.730;9.304;2022-08-19T04:47:02;97203.78;;;18.87;81.99
967;BME280;56108;48.730;9.304;2022-08-19T04:49:16;97201.06;;;18.78;81.96
967;BME280;56108;48.730;9.304;2022-08-19T04:51:26;97205.31;;;18.81;82.00
967;BME280;56108;48.730;9.304;2022-08-19T04:53:37;97204.78;;;18.77;82.19
967;BME280;56108;48.730;9.304;2022-08-19T04:55:45;97209.16;;;18.78;82.23
967;BME280;56108;48.730;9.304;2022-08-19T04:57:58;97213.56;;;18.71;82.23
967;BME280;56108;48.730;9.304;2022-08-19T05:00:09;97220.78;;;18.79;82.12
967;BME280;56108;48.730;9.304;2022-08-19T05:02:18;97219.59;;;18.73;82.30
967;BME280;56108;48.730;9.304;2022-08-19T05:04:27;97221.13;;;18.84;81.50
967;BME280;56108;48.730;9.304;2022-08-19T05:06:37;97217.59;;;18.84;81.66
967;BME280;56108;48.730;9.304;2022-08-19T05:08:46;97234.28;;;18.79;82.13
967;BME280;56108;48.730;9.304;2022-08-19T05:10:54;97237.31;;;18.76;81.80
967;BME280;56108;48.730;9.304;2022-08-19T05:13:04;97243.38;;;18.78;81.91
967;BME280;56108;48.730;9.304;2022-08-19T05:15:17;97258.88;;;18.84;81.90
967;BME280;56108;48.730;9.304;2022-08-19T05:17:26;97267.84;;;18.85;81.94
967;BME280;56108;48.730;9.304;2022-08-19T05:19:44;97261.91;;;18.89;81.54
967;BME280;56108;48.730;9.304;2022-08-19T05:22:05;97284.38;;;18.90;81.17
967;BME280;56108;48.730;9.304;2022-08-19T05:24:26;97294.63;;;18.86;81.11
967;BME280;56108;48.730;9.304;2022-08-19T05:26:36;97298.66;;;18.82;81.63
967;BME280;56108;48.730;9.304;2022-08-19T05:28:47;97300.53;;;18.90;81.64
967;BME280;56108;48.730;9.304;2022-08-19T05:30:58;97307.63;;;18.91;82.00
967;BME280;56108;48.730;9.304;2022-08-19T05:33:06;97317.72;;;18.89;81.82
967;BME280;56108;48.730;9.304;2022-08-19T05:35:16;97323.31;;;18.95;81.73
967;BME280;56108;48.730;9.304;2022-08-19T05:37:27;97330.03;;;18.91;81.51
967;BME280;56108;48.730;9.304;2022-08-19T05:39:37;97323.09;;;18.89;82.35
967;BME280;56108;48.730;9.304;2022-08-19T05:41:48;97331.56;;;19.02;81.96
967;BME280;56108;48.730;9.304;2022-08-19T05:44:02;97326.16;;;19.10;81.29
967;BME280;56108;48.730;9.304;2022-08-19T05:46:16;97320.09;;;19.08;81.01
967;BME280;56108;48.730;9.304;2022-08-19T05:48:32;97317.75;;;19.13;80.62
967;BME280;56108;48.730;9.304;2022-08-19T05:50:41;97323.16;;;19.13;80.66
967;BME280;56108;48.730;9.304;2022-08-19T05:52:50;97312.03;;;19.16;81.21
967;BME280;56108;48.730;9.304;2022-08-19T05:54:58;97316.06;;;19.12;80.24
967;BME280;56108;48.730;9.304;2022-08-19T05:57:08;97318.75;;;19.20;80.15
967;BME280;56108;48.730;9.304;2022-08-19T05:59:20;97313.53;;;19.19;80.33
967;BME280;56108;48.730;9.304;2022-08-19T06:01:29;97316.75;;;19.14;81.08
967;BME280;56108;48.730;9.304;2022-08-19T06:03:37;97314.88;;;19.07;81.78
967;BME280;56108;48.730;9.304;2022-08-19T06:05:45;97315.22;;;19.03;82.11
967;BME280;56108;48.730;9.304;2022-08-19T06:08:00;97313.84;;;18.99;82.75
967;BME280;56108;48.730;9.304;2022-08-19T06:10:11;97322.44;;;18.95;83.97
967;BME280;56108;48.730;9.304;2022-08-19T06:12:19;97315.53;;;18.92;83.81
967;BME280;56108;48.730;9.304;2022-08-19T06:14:38;97322.78;;;19.00;83.66
967;BME280;56108;48.730;9.304;2022-08-19T06:16:46;97315.53;;;18.92;84.67
967;BME280;56108;48.730;9.304;2022-08-19T06:19:02;97316.88;;;18.88;84.67
967;BME280;56108;48.730;9.304;2022-08-19T06:21:11;97314.38;;;19.03;84.69
967;BME280;56108;48.730;9.304;2022-08-19T06:23:19;97315.88;;;18.97;84.08
967;BME280;56108;48.730;9.304;2022-08-19T06:25:28;97312.16;;;18.98;83.97
967;BME280;56108;48.730;9.304;2022-08-19T06:27:36;97313.34;;;18.96;83.82
967;BME280;56108;48.730;9.304;2022-08-19T06:30:09;97325.47;;;19.00;83.80
967;BME280;56108;48.730;9.304;2022-08-19T06:32:18;97326.50;;;18.91;84.15
967;BME280;56108;48.730;9.304;2022-08-19T06:34:27;97329.53;;;19.04;83.62
967;BME280;56108;48.730;9.304;2022-08-19T06:36:37;97326.03;;;19.12;83.29
967;BME280;56108;48.730;9.304;2022-08-19T06:38:45;97327.69;;;19.04;82.58
967;BME280;56108;48.730;9.304;2022-08-19T06:41:00;97324.66;;;19.08;82.98
967;BME280;56108;48.730;9.304;2022-08-19T06:43:12;97325.00;;;19.13;83.29
967;BME280;56108;48.730;9.304;2022-08-19T06:45:27;97325.84;;;19.13;82.79
967;BME280;56108;48.730;9.304;2022-08-19T06:47:39;97321.28;;;19.14;84.46
967;BME280;56108;48.730;9.304;2022-08-19T06:49:54;97322.47;;;19.19;84.39
967;BME280;56108;48.730;9.304;2022-08-19T06:52:12;97319.44;;;19.30;85.17
967;BME280;56108;48.730;9.304;2022-08-19T06:54:22;97323.16;;;19.29;85.28
967;BME280;56108;48.730;9.304;2022-08-19T06:56:35;97322.97;;;19.31;84.34
967;BME280;56108;48.730;9.304;2022-08-19T06:58:46;97327.38;;;19.40;83.74
967;BME280;56108;48.730;9.304;2022-08-19T07:01:01;97324.84;;;19.47;83.52
967;BME280;56108;48.730;9.304;2022-08-19T07:03:13;97336.66;;;19.46;82.28
967;BME280;56108;48.730;9.304;2022-08-19T07:05:22;97334.81;;;19.54;82.31
967;BME280;56108;48.730;9.304;2022-08-19T07:07:30;97335.19;;;19.60;84.12
967;BME280;56108;48.730;9.304;2022-08-19T07:09:41;97327.38;;;19.56;85.47
967;BME280;56108;48.730;9.304;2022-08-19T07:12:01;97337.34;;;19.40;86.59
967;BME280;56108;48.730;9.304;2022-08-19T07:14:13;97323.84;;;19.32;88.36
967;BME280;56108;48.730;9.304;2022-08-19T07:16:26;97332.59;;;19.17;88.90
967;BME280;56108;48.730;9.304;2022-08-19T07:18:35;97333.75;;;19.15;89.04
967;BME280;56108;48.730;9.304;2022-08-19T07:20:47;97332.94;;;19.06;90.05
967;BME280;56108;48.730;9.304;2022-08-19T07:22:56;97327.19;;;19.01;90.71
967;BME280;56108;48.730;9.304;2022-08-19T07:25:06;97331.56;;;19.02;91.43
967;BME280;56108;48.730;9.304;2022-08-19T07:27:15;97330.19;;;18.98;91.50
967;BME280;56108;48.730;9.304;2022-08-19T07:29:31;97337.13;;;19.00;91.81
967;BME280;56108;48.730;9.304;2022-08-19T07:31:42;97332.72;;;18.91;91.94
967;BME280;56108;48.730;9.304;2022-08-19T07:33:53;97327.50;;;18.90;92.50
967;BME280;56108;48.730;9.304;2022-08-19T07:36:04;97340.63;;;18.85;92.56
967;BME280;56108;48.730;9.304;2022-08-19T07:38:12;97334.72;;;18.81;93.65
967;BME280;56108;48.730;9.304;2022-08-19T07:40:21;97343.16;;;18.86;93.72
967;BME280;56108;48.730;9.304;2022-08-19T07:42:29;97337.41;;;18.81;94.13
967;BME280;56108;48.730;9.304;2022-08-19T07:46:57;97344.19;;;18.85;93.86
967;BME280;56108;48.730;9.304;2022-08-19T07:49:06;97338.56;;;18.78;93.58
967;BME280;56108;48.730;9.304;2022-08-19T07:51:20;97336.59;;;18.89;93.43
967;BME280;56108;48.730;9.304;2022-08-19T07:53:42;97350.75;;;18.91;93.53
967;BME280;56108;48.730;9.304;2022-08-19T07:55:51;97352.72;;;18.72;93.54
967;BME280;56108;48.730;9.304;2022-08-19T07:57:59;97349.19;;;18.72;94.07
967;BME280;56108;48.730;9.304;2022-08-19T08:00:09;97348.88;;;18.75;94.98
967;BME280;56108;48.730;9.304;2022-08-19T08:02:20;97348.19;;;18.81;95.54
967;BME280;56108;48.730;9.304;2022-08-19T08:04:29;97350.72;;;18.83;94.94
967;BME280;56108;48.730;9.304;2022-08-19T08:06:50;97347.16;;;18.74;96.24
967;BME280;56108;48.730;9.304;2022-08-19T08:09:21;97352.22;;;18.77;95.83
967;BME280;56108;48.730;9.304;2022-08-19T08:11:32;97349.03;;;18.82;96.11
967;BME280;56108;48.730;9.304;2022-08-19T08:13:42;97352.75;;;18.81;96.99
967;BME280;56108;48.730;9.304;2022-08-19T08:16:04;97354.25;;;18.83;97.19
967;BME280;56108;48.730;9.304;2022-08-19T08:18:21;97351.91;;;18.88;97.63
967;BME280;56108;48.730;9.304;2022-08-19T08:20:34;97349.03;;;18.82;97.59
967;BME280;56108;48.730;9.304;2022-08-19T08:22:43;97349.53;;;18.77;97.11
967;BME280;56108;48.730;9.304;2022-08-19T08:25:12;97353.78;;;18.88;96.49
967;BME280;56108;48.730;9.304;2022-08-19T08:27:21;97351.75;;;18.82;96.05
967;BME280;56108;48.730;9.304;2022-08-19T08:29:30;97365.25;;;18.90;96.41
967;BME280;56108;48.730;9.304;2022-08-19T08:31:40;97359.81;;;18.82;96.76
967;BME280;56108;48.730;9.304;2022-08-19T08:33:51;97354.63;;;18.88;96.89
967;BME280;56108;48.730;9.304;2022-08-19T08:35:59;97354.44;;;18.82;97.44
967;BME280;56108;48.730;9.304;2022-08-19T08:38:08;97349.91;;;18.90;97.44
967;BME280;56108;48.730;9.304;2022-08-19T08:40:20;97350.63;;;19.00;97.06
967;BME280;56108;48.730;9.304;2022-08-19T08:42:34;97350.09;;;19.05;96.33
967;BME280;56108;48.730;9.304;2022-08-19T08:44:50;97349.13;;;19.22;96.44
967;BME280;56108;48.730;9.304;2022-08-19T08:47:22;97342.41;;;19.43;96.30
967;BME280;56108;48.730;9.304;2022-08-19T08:49:46;97344.41;;;19.57;95.75
967;BME280;56108;48.730;9.304;2022-08-19T08:52:03;97346.81;;;19.68;94.94
967;BME280;56108;48.730;9.304;2022-08-19T08:54:35;97342.94;;;19.71;93.66
967;BME280;56108;48.730;9.304;2022-08-19T08:57:22;97356.56;;;19.45;91.12
967;BME280;56108;48.730;9.304;2022-08-19T08:59:51;97361.81;;;19.54;92.97
967;BME280;56108;48.730;9.304;2022-08-19T09:02:10;97353.84;;;19.37;93.07
967;BME280;56108;48.730;9.304;2022-08-19T09:04:18;97366.69;;;19.35;93.43
967;BME280;56108;48.730;9.304;2022-08-19T09:06:38;97370.88;;;19.29;92.38
967;BME280;56108;48.730;9.304;2022-08-19T09:08:52;97367.16;;;19.30;92.16
967;BME280;56108;48.730;9.304;2022-08-19T09:11:13;97370.38;;;19.34;93.33
967;BME280;56108;48.730;9.304;2022-08-19T09:13:51;97371.22;;;19.34;94.30
967;BME280;56108;48.730;9.304;2022-08-19T09:16:07;97364.84;;;19.43;94.41
967;BME280;56108;48.730;9.304;2022-08-19T09:18:17;97368.84;;;19.31;94.58
967;BME280;56108;48.730;9.304;2022-08-19T09:20:25;97368.53;;;19.34;94.88
967;BME280;56108;48.730;9.304;2022-08-19T09:22:37;97378.66;;;19.32;95.07
967;BME280;56108;48.730;9.304;2022-08-19T09:24:45;97377.97;;;19.30;93.93
967;BME280;56108;48.730;9.304;2022-08-19T09:26:53;97376.94;;;19.31;94.38
967;BME280;56108;48.730;9.304;2022-08-19T09:29:03;97375.09;;;19.23;93.62
967;BME280;56108;48.730;9.304;2022-08-19T09:31:13;97379.47;;;19.16;93.88
967;BME280;56108;48.730;9.304;2022-08-19T09:33:23;97379.31;;;19.26;94.23
967;BME280;56108;48.730;9.304;2022-08-19T09:35:34;97382.34;;;19.23;93.58
967;BME280;56108;48.730;9.304;2022-08-19T09:38:00;97374.94;;;19.33;93.71
967;BME280;56108;48.730;9.304;2022-08-19T09:40:09;97385.75;;;19.33;92.72
967;BME280;56108;48.730;9.304;2022-08-19T09:42:17;97392.47;;;19.29;92.32
967;BME280;56108;48.730;9.304;2022-08-19T09:44:34;97385.84;;;19.15;92.86
967;BME280;56108;48.730;9.304;2022-08-19T09:46:43;97401.06;;;19.16;92.76
967;BME280;56108;48.730;9.304;2022-08-19T09:48:53;97390.44;;;19.23;93.29
967;BME280;56108;48.730;9.304;2022-08-19T09:51:09;97391.88;;;18.93;93.13
967;BME280;56108;48.730;9.304;2022-08-19T09:53:23;97393.59;;;19.02;94.45
967;BME280;56108;48.730;9.304;2022-08-19T09:55:32;97390.88;;;18.94;94.18
967;BME280;56108;48.730;9.304;2022-08-19T09:57:40;97392.53;;;18.95;94.01
967;BME280;56108;48.730;9.304;2022-08-19T09:59:48;97388.72;;;19.06;94.41
967;BME280;56108;48.730;9.304;2022-08-19T10:01:58;97394.25;;;18.96;94.45
967;BME280;56108;48.730;9.304;2022-08-19T10:04:15;97392.41;;;18.96;94.00
967;BME280;56108;48.730;9.304;2022-08-19T10:06:28;97397.31;;;19.01;94.51
967;BME280;56108;48.730;9.304;2022-08-19T10:08:53;97394.63;;;19.09;95.34
967;BME280;56108;48.730;9.304;2022-08-19T10:11:03;97388.22;;;19.10;95.22
967;BME280;56108;48.730;9.304;2022-08-19T10:13:32;97383.16;;;19.15;96.09
967;BME280;56108;48.730;9.304;2022-08-19T10:15:40;97388.06;;;19.20;96.53
967;BME280;56108;48.730;9.304;2022-08-19T10:17:53;97384.22;;;19.22;96.68
967;BME280;56108;48.730;9.304;2022-08-19T10:20:04;97388.41;;;19.25;96.91
967;BME280;56108;48.730;9.304;2022-08-19T10:22:12;97385.06;;;19.39;97.23
967;BME280;56108;48.730;9.304;2022-08-19T10:24:23;97388.25;;;19.35;96.74
967;BME280;56108;48.730;9.304;2022-08-19T10:26:34;97389.09;;;19.35;96.86
967;BME280;56108;48.730;9.304;2022-08-19T10:28:43;97390.13;;;19.34;96.42
967;BME280;56108;48.730;9.304;2022-08-19T10:30:51;97390.63;;;19.38;96.69
967;BME280;56108;48.730;9.304;2022-08-19T10:33:00;97375.97;;;19.48;96.18
967;BME280;56108;48.730;9.304;2022-08-19T10:35:18;97375.63;;;19.51;96.33
967;BME280;56108;48.730;9.304;2022-08-19T10:37:27;97373.94;;;19.50;96.12
967;BME280;56108;48.730;9.304;2022-08-19T10:39:38;97375.63;;;19.51;96.11
967;BME280;56108;48.730;9.304;2022-08-19T10:41:50;97378.50;;;19.58;96.16
967;BME280;56108;48.730;9.304;2022-08-19T10:44:00;97376.66;;;19.67;96.04
967;BME280;56108;48.730;9.304;2022-08-19T10:46:11;97374.81;;;19.75;95.72
967;BME280;56108;48.730;9.304;2022-08-19T10:48:22;97375.34;;;19.79;95.16
967;BME280;56108;48.730;9.304;2022-08-19T10:50:32;97379.03;;;19.78;94.95
967;BME280;56108;48.730;9.304;2022-08-19T10:52:53;97378.19;;;19.69;95.13
967;BME280;56108;48.730;9.304;2022-08-19T10:55:07;97382.91;;;19.75;95.15
967;BME280;56108;48.730;9.304;2022-08-19T10:57:30;97375.31;;;19.71;95.09
967;BME280;56108;48.730;9.304;2022-08-19T10:59:59;97375.13;;;19.56;95.83
967;BME280;56108;48.730;9.304;2022-08-19T11:02:10;97371.41;;;19.49;96.35
967;BME280;56108;48.730;9.304;2022-08-19T11:04:22;97374.78;;;19.35;97.29
967;BME280;56108;48.730;9.304;2022-08-19T11:06:33;97372.38;;;19.15;99.05
967;BME280;56108;48.730;9.304;2022-08-19T11:08:43;97383.13;;;18.91;100.00
967;BME280;56108;48.730;9.304;2022-08-19T11:10:54;97371.97;;;18.51;100.00
967;BME280;56108;48.730;9.304;2022-08-19T11:13:05;97373.28;;;18.47;100.00
967;BME280;56108;48.730;9.304;2022-08-19T11:15:13;97360.84;;;18.46;100.00
967;BME280;56108;48.730;9.304;2022-08-19T11:17:23;97360.19;;;18.52;100.00
967;BME280;56108;48.730;9.304;2022-08-19T11:19:32;97358.69;;;18.58;100.00
967;BME280;56108;48.730;9.304;2022-08-19T11:21:43;97357.38;;;18.62;100.00
967;BME280;56108;48.730;9.304;2022-08-19T11:23:56;97359.34;;;18.52;100.00
967;BME280;56108;48.730;9.304;2022-08-19T11:26:07;97357.78;;;18.41;100.00
967;BME280;56108;48.730;9.304;2022-08-19T11:28:17;97355.25;;;18.40;100.00
967;BME280;56108;48.730;9.304;2022-08-19T11:30:25;97353.22;;;18.42;100.00
967;BME280;56108;48.730;9.304;2022-08-19T11:32:33;97354.59;;;18.46;100.00
967;BME280;56108;48.730;9.304;2022-08-19T11:34:42;97356.66;;;18.52;100.00
967;BME280;56108;48.730;9.304;2022-08-19T11:36:51;97351.47;;;18.59;100.00
967;BME280;56108;48.730;9.304;2022-08-19T11:39:03;97353.50;;;18.65;100.00
967;BME280;56108;48.730;9.304;2022-08-19T11:41:15;97349.84;;;18.74;100.00
967;BME280;56108;48.730;9.304;2022-08-19T11:43:29;97351.50;;;18.67;100.00
967;BME280;56108;48.730;9.304;2022-08-19T11:45:41;97346.88;;;18.85;100.00
967;BME280;56108;48.730;9.304;2022-08-19T11:47:49;97350.75;;;18.91;100.00
967;BME280;56108;48.730;9.304;2022-08-19T11:49:58;97349.59;;;19.01;100.00
967;BME280;56108;48.730;9.304;2022-08-19T11:52:05;97343.38;;;19.17;100.00
967;BME280;56108;48.730;9.304;2022-08-19T11:54:15;97340.69;;;19.25;100.00
967;BME280;56108;48.730;9.304;2022-08-19T11:56:27;97348.75;;;19.09;100.00
967;BME280;56108;48.730;9.304;2022-08-19T11:58:36;97344.03;;;19.03;100.00